Terminal Aerodrome Forecast
Issued by NWS Grand Forks, ND

Home | Current Version | Previous Version | Graphics & Text | Print | Product List | Glossary On
Versions: 1 2 3 4 5 6 7 8 9 10 11 12 13 14 15 16 17 18 19 20 21 22
000
FTUS43 KFGF 231700
TAFFAR
TAF
KFAR 231735Z 2318/2418 13022G30KT P6SM OVC060
      TEMPO 2318/2319 5SM -RA BKN015
     FM232300 12020G28KT P6SM -RA OVC025
     FM240700 12012KT P6SM BKN025=

USA.gov is the U.S. government's official web portal to all federal, state and local government web resources and services.